PWSweather.com
Personal Weather Stations
Station Observations
KNVELKO7
Elko, NV 89801

Elko, NV 89801

Lat: 40.963233, Lon: -115.592836

Elevation: 5230

Station Type: WS-2812

High Low Average
Temperature 82.4°F28.0°F 38.0°F3.3°F 59.6°F15.3°F
Dew Point 49.8°F9.9°F 31.1°F-0.5°F 39.4°F4.1°F
Winds 11.6 mph NE18.7 mph NE Calm Calm 3.8 mph 6.1 mph
Wind Gusts 15.7 mph25.3 mph -- 5.7 mph9.2 mph
Humidity 81% 23% 52%
Pressure 30.40 in1029.50 in 30.23 in1023.70 in -
Precipitation 0.00 in0.00 in - -
Hour Temp Dew Point Humidity Winds Wind Gusts Pressure Precip Precip Rate Daily Precip Total
12:04 AM 50.8°F10.4°C 36.5°F2.5°C 58% 3.1 mph E5.0 kmh E 4.5 mph7.2 kmh 30.40 in1029.5 mb 0.00 in0.0 mm 0.00 in0.0 mm 0.00 in0.0 mm
12:09 AM 50.0°F10.0°C 36.3°F2.4°C 59% 3.8 mph ENE6.1 kmh ENE 4.3 mph6.9 kmh 30.40 in1029.5 mb 0.00 in0.0 mm 0.00 in0.0 mm 0.00 in0.0 mm
12:14 AM 49.5°F9.7°C 35.8°F2.1°C 59% 3.3 mph N5.3 kmh N 4.9 mph7.9 kmh 30.40 in1029.5 mb 0.00 in0.0 mm 0.00 in0.0 mm 0.00 in0.0 mm
12:19 AM 49.3°F9.6°C 35.7°F2.1°C 59% 4.0 mph NNE6.4 kmh NNE 4.9 mph7.9 kmh 30.40 in1029.5 mb 0.00 in0.0 mm 0.00 in0.0 mm 0.00 in0.0 mm
12:24 AM 49.0°F9.4°C 35.7°F2.1°C 60% 5.8 mph NNE9.3 kmh NNE 6.0 mph9.7 kmh 30.40 in1029.5 mb 0.00 in0.0 mm 0.00 in0.0 mm 0.00 in0.0 mm
12:29 AM 48.8°F9.3°C 36.4°F2.4°C 62% 6.6 mph NNE10.6 kmh NNE 6.9 mph11.1 kmh 30.40 in1029.5 mb 0.00 in0.0 mm 0.00 in0.0 mm 0.00 in0.0 mm
12:34 AM 48.6°F9.2°C 36.5°F2.5°C 63% 5.5 mph NNE8.9 kmh NNE 6.9 mph11.1 kmh 30.39 in1029.1 mb 0.00 in0.0 mm 0.00 in0.0 mm 0.00 in0.0 mm
12:39 AM 48.2°F9.0°C 35.8°F2.1°C 62% 3.2 mph WSW5.1 kmh WSW 6.3 mph10.1 kmh 30.40 in1029.5 mb 0.00 in0.0 mm 0.00 in0.0 mm 0.00 in0.0 mm
12:44 AM 47.7°F8.7°C 34.9°F1.6°C 61% 2.3 mph WSW3.7 kmh WSW 4.0 mph6.4 kmh 30.39 in1029.1 mb 0.00 in0.0 mm 0.00 in0.0 mm 0.00 in0.0 mm
12:49 AM 47.2°F8.4°C 34.8°F1.6°C 62% 3.2 mph WSW5.1 kmh WSW 3.4 mph5.5 kmh 30.39 in1029.1 mb 0.00 in0.0 mm 0.00 in0.0 mm 0.00 in0.0 mm
12:54 AM 47.0°F8.3°C 35.0°F1.7°C 63% 1.8 mph WSW2.9 kmh WSW 3.4 mph5.5 kmh 30.39 in1029.1 mb 0.00 in0.0 mm 0.00 in0.0 mm 0.00 in0.0 mm
12:59 AM 47.0°F8.3°C 35.0°F1.7°C 63% 0.8 mph W1.3 kmh W 2.7 mph4.3 kmh 30.39 in1029.1 mb 0.00 in0.0 mm 0.00 in0.0 mm 0.00 in0.0 mm
01:04 AM 47.2°F8.4°C 35.2°F1.8°C 63% 2.5 mph WSW4.0 kmh WSW 3.1 mph5.0 kmh 30.39 in1029.1 mb 0.00 in0.0 mm 0.00 in0.0 mm 0.00 in0.0 mm
01:09 AM 47.2°F8.4°C 35.2°F1.8°C 63% 2.1 mph S3.4 kmh S 3.1 mph5.0 kmh 30.39 in1029.1 mb 0.00 in0.0 mm 0.00 in0.0 mm 0.00 in0.0 mm
01:14 AM 46.8°F8.2°C 34.8°F1.6°C 63% 1.8 mph SSE2.9 kmh SSE 3.8 mph6.1 kmh 30.39 in1029.1 mb 0.00 in0.0 mm 0.00 in0.0 mm 0.00 in0.0 mm
01:19 AM 46.4°F8.0°C 34.5°F1.4°C 63% Calm Calm 3.8 mph6.1 kmh 30.39 in1029.1 mb 0.00 in0.0 mm 0.00 in0.0 mm 0.00 in0.0 mm
01:24 AM 46.4°F8.0°C 34.9°F1.6°C 64% 2.0 mph SE3.2 kmh SE 2.2 mph3.5 kmh 30.39 in1029.1 mb 0.00 in0.0 mm 0.00 in0.0 mm 0.00 in0.0 mm
01:29 AM 46.6°F8.1°C 34.7°F1.5°C 63% 3.7 mph ENE6.0 kmh ENE 4.0 mph6.4 kmh 30.39 in1029.1 mb 0.00 in0.0 mm 0.00 in0.0 mm 0.00 in0.0 mm
01:34 AM 46.8°F8.2°C 35.2°F1.8°C 64% 0.8 mph ESE1.3 kmh ESE 4.0 mph6.4 kmh 30.39 in1029.1 mb 0.00 in0.0 mm 0.00 in0.0 mm 0.00 in0.0 mm
01:39 AM 46.6°F8.1°C 35.1°F1.7°C 64% 0.8 mph ESE1.3 kmh ESE 2.9 mph4.7 kmh 30.39 in1029.1 mb 0.00 in0.0 mm 0.00 in0.0 mm 0.00 in0.0 mm
01:44 AM 46.3°F7.9°C 34.8°F1.6°C 64% 0.8 mph W1.3 kmh W 1.6 mph2.6 kmh 30.39 in1029.1 mb 0.00 in0.0 mm 0.00 in0.0 mm 0.00 in0.0 mm
01:49 AM 45.4°F7.4°C 33.5°F0.8°C 63% 3.5 mph 5.6 kmh 3.6 mph5.8 kmh 30.39 in1029.1 mb 0.00 in0.0 mm 0.00 in0.0 mm 0.00 in0.0 mm
01:54 AM 45.0°F7.2°C 33.1°F0.6°C 63% 2.8 mph NNE4.5 kmh NNE 4.0 mph6.4 kmh 30.39 in1029.1 mb 0.00 in0.0 mm 0.00 in0.0 mm 0.00 in0.0 mm
02:00 AM 45.0°F7.2°C 33.9°F1.1°C 65% 2.5 mph NNE4.0 kmh NNE 4.0 mph6.4 kmh 30.38 in1028.8 mb 0.00 in0.0 mm 0.00 in0.0 mm 0.00 in0.0 mm
02:05 AM 45.0°F7.2°C 33.9°F1.1°C 65% 4.9 mph NNE7.9 kmh NNE 6.0 mph9.7 kmh 30.38 in1028.8 mb 0.00 in0.0 mm 0.00 in0.0 mm 0.00 in0.0 mm
02:10 AM 45.4°F7.4°C 34.7°F1.5°C 66% 3.5 mph NNE5.6 kmh NNE 6.0 mph9.7 kmh 30.39 in1029.1 mb 0.00 in0.0 mm 0.00 in0.0 mm 0.00 in0.0 mm
02:14 AM 45.7°F7.6°C 35.4°F1.9°C 67% 1.5 mph NNE2.4 kmh NNE 4.9 mph7.9 kmh 30.38 in1028.8 mb 0.00 in0.0 mm 0.00 in0.0 mm 0.00 in0.0 mm
02:19 AM 46.1°F7.8°C 35.4°F1.9°C 66% 3.2 mph NNE5.1 kmh NNE 4.3 mph6.9 kmh 30.38 in1028.8 mb 0.00 in0.0 mm 0.00 in0.0 mm 0.00 in0.0 mm
02:24 AM 46.8°F8.2°C 36.5°F2.5°C 67% 4.9 mph NNE7.9 kmh NNE 6.0 mph9.7 kmh 30.38 in1028.8 mb 0.00 in0.0 mm 0.00 in0.0 mm 0.00 in0.0 mm
02:29 AM 46.6°F8.1°C 35.5°F1.9°C 65% 1.6 mph 2.6 kmh 6.0 mph9.7 kmh 30.38 in1028.8 mb 0.00 in0.0 mm 0.00 in0.0 mm 0.00 in0.0 mm
02:34 AM 46.3°F7.9°C 35.1°F1.7°C 65% 0.6 mph WNW1.0 kmh WNW 4.0 mph6.4 kmh 30.38 in1028.8 mb 0.00 in0.0 mm 0.00 in0.0 mm 0.00 in0.0 mm
02:39 AM 45.5°F7.5°C 34.5°F1.4°C 65% 0.9 mph WNW1.4 kmh WNW 1.6 mph2.6 kmh 30.38 in1028.8 mb 0.00 in0.0 mm 0.00 in0.0 mm 0.00 in0.0 mm
02:44 AM 45.0°F7.2°C 33.6°F0.9°C 64% 2.0 mph NNE3.2 kmh NNE 2.7 mph4.3 kmh 30.38 in1028.8 mb 0.00 in0.0 mm 0.00 in0.0 mm 0.00 in0.0 mm
02:49 AM 44.6°F7.0°C 33.9°F1.1°C 66% 1.6 mph NNE2.6 kmh NNE 2.7 mph4.3 kmh 30.38 in1028.8 mb 0.00 in0.0 mm 0.00 in0.0 mm 0.00 in0.0 mm
02:54 AM 44.3°F6.8°C 33.6°F0.9°C 66% 1.6 mph NE2.6 kmh NE 2.0 mph3.2 kmh 30.38 in1028.8 mb 0.00 in0.0 mm 0.00 in0.0 mm 0.00 in0.0 mm
03:00 AM 44.1°F6.7°C 33.9°F1.1°C 67% 3.1 mph NE5.0 kmh NE 3.6 mph5.8 kmh 30.38 in1028.8 mb 0.00 in0.0 mm 0.00 in0.0 mm 0.00 in0.0 mm
03:05 AM 44.1°F6.7°C 34.2°F1.2°C 68% 4.3 mph ENE6.9 kmh ENE 4.7 mph7.6 kmh 30.38 in1028.8 mb 0.00 in0.0 mm 0.00 in0.0 mm 0.00 in0.0 mm
03:10 AM 44.1°F6.7°C 34.2°F1.2°C 68% 4.3 mph ENE6.9 kmh ENE 4.7 mph7.6 kmh 30.38 in1028.8 mb 0.00 in0.0 mm 0.00 in0.0 mm 0.00 in0.0 mm
03:15 AM 43.9°F6.6°C 34.5°F1.4°C 69% 1.8 mph ENE2.9 kmh ENE 4.7 mph7.6 kmh 30.38 in1028.8 mb 0.00 in0.0 mm 0.00 in0.0 mm 0.00 in0.0 mm
03:20 AM 43.6°F6.4°C 33.8°F1.0°C 68% 2.3 mph 3.7 kmh 3.6 mph5.8 kmh 30.38 in1028.8 mb 0.00 in0.0 mm 0.00 in0.0 mm 0.00 in0.0 mm
03:25 AM 42.8°F6.0°C 33.0°F0.6°C 68% 1.6 mph 2.6 kmh 2.9 mph4.7 kmh 30.38 in1028.8 mb 0.00 in0.0 mm 0.00 in0.0 mm 0.00 in0.0 mm
03:30 AM 42.3°F5.7°C 32.5°F0.3°C 68% 1.9 mph 3.1 kmh 2.5 mph4.0 kmh 30.38 in1028.8 mb 0.00 in0.0 mm 0.00 in0.0 mm 0.00 in0.0 mm
03:35 AM 42.1°F5.6°C 32.3°F0.2°C 68% 3.5 mph N5.6 kmh N 3.6 mph5.8 kmh 30.38 in1028.8 mb 0.00 in0.0 mm 0.00 in0.0 mm 0.00 in0.0 mm
03:39 AM 42.5°F5.8°C 33.9°F1.1°C 71% 4.5 mph NE7.2 kmh NE 4.7 mph7.6 kmh 30.38 in1028.8 mb 0.00 in0.0 mm 0.00 in0.0 mm 0.00 in0.0 mm
03:44 AM 43.0°F6.1°C 34.7°F1.5°C 72% 4.9 mph ENE7.9 kmh ENE 5.4 mph8.7 kmh 30.38 in1028.8 mb 0.00 in0.0 mm 0.00 in0.0 mm 0.00 in0.0 mm
03:49 AM 43.6°F6.4°C 35.5°F1.9°C 73% 5.9 mph ENE9.5 kmh ENE 6.0 mph9.7 kmh 30.37 in1028.4 mb 0.00 in0.0 mm 0.00 in0.0 mm 0.00 in0.0 mm
03:54 AM 44.1°F6.7°C 36.0°F2.2°C 73% 6.2 mph NE10.0 kmh NE 6.9 mph11.1 kmh 30.38 in1028.8 mb 0.00 in0.0 mm 0.00 in0.0 mm 0.00 in0.0 mm
04:00 AM 44.1°F6.7°C 35.3°F1.8°C 71% 1.8 mph 2.9 kmh 6.9 mph11.1 kmh 30.38 in1028.8 mb 0.00 in0.0 mm 0.00 in0.0 mm 0.00 in0.0 mm
04:05 AM 43.6°F6.4°C 34.8°F1.6°C 71% 1.6 mph 2.6 kmh 4.9 mph7.9 kmh 30.38 in1028.8 mb 0.00 in0.0 mm 0.00 in0.0 mm 0.00 in0.0 mm
04:10 AM 43.0°F6.1°C 34.3°F1.3°C 71% 1.8 mph SW2.9 kmh SW 2.5 mph4.0 kmh 30.38 in1028.8 mb 0.00 in0.0 mm 0.00 in0.0 mm 0.00 in0.0 mm
04:15 AM 42.8°F6.0°C 33.8°F1.0°C 70% 1.3 mph NNE2.1 kmh NNE 2.5 mph4.0 kmh 30.38 in1028.8 mb 0.00 in0.0 mm 0.00 in0.0 mm 0.00 in0.0 mm
04:20 AM 42.7°F5.9°C 34.0°F1.1°C 71% 1.2 mph NNE1.9 kmh NNE 1.3 mph2.1 kmh 30.38 in1028.8 mb 0.00 in0.0 mm 0.00 in0.0 mm 0.00 in0.0 mm
04:25 AM 42.5°F5.8°C 33.9°F1.1°C 71% 1.5 mph NNE2.4 kmh NNE 2.5 mph4.0 kmh 30.38 in1028.8 mb 0.00 in0.0 mm 0.00 in0.0 mm 0.00 in0.0 mm
04:30 AM 42.1°F5.6°C 33.5°F0.8°C 71% 2.3 mph E3.7 kmh E 2.5 mph4.0 kmh 30.38 in1028.8 mb 0.00 in0.0 mm 0.00 in0.0 mm 0.00 in0.0 mm
04:35 AM 41.6°F5.3°C 32.6°F0.3°C 70% 2.0 mph NNE3.2 kmh NNE 2.7 mph4.3 kmh 30.38 in1028.8 mb 0.00 in0.0 mm 0.00 in0.0 mm 0.00 in0.0 mm
04:40 AM 41.2°F5.1°C 32.6°F0.3°C 71% 2.3 mph E3.7 kmh E 2.9 mph4.7 kmh 30.37 in1028.4 mb 0.00 in0.0 mm 0.00 in0.0 mm 0.00 in0.0 mm
04:45 AM 41.0°F5.0°C 32.4°F0.2°C 71% 1.8 mph NNE2.9 kmh NNE 2.9 mph4.7 kmh 30.37 in1028.4 mb 0.00 in0.0 mm 0.00 in0.0 mm 0.00 in0.0 mm
04:50 AM 40.9°F4.9°C 32.2°F0.1°C 71% 2.7 mph 4.3 kmh 3.1 mph5.0 kmh 30.38 in1028.8 mb 0.00 in0.0 mm 0.00 in0.0 mm 0.00 in0.0 mm
04:55 AM 40.9°F4.9°C 32.5°F0.3°C 72% 2.6 mph NE4.2 kmh NE 3.4 mph5.5 kmh 30.38 in1028.8 mb 0.00 in0.0 mm 0.00 in0.0 mm 0.00 in0.0 mm
05:01 AM 40.7°F4.8°C 32.7°F0.4°C 73% 2.0 mph NNW3.2 kmh NNW 3.8 mph6.1 kmh 30.38 in1028.8 mb 0.00 in0.0 mm 0.00 in0.0 mm 0.00 in0.0 mm
05:06 AM 40.5°F4.7°C 32.5°F0.3°C 73% 1.1 mph 1.8 kmh 3.8 mph6.1 kmh 30.38 in1028.8 mb 0.00 in0.0 mm 0.00 in0.0 mm 0.00 in0.0 mm
05:11 AM 40.3°F4.6°C 32.3°F0.2°C 73% 1.5 mph 2.4 kmh 2.0 mph3.2 kmh 30.38 in1028.8 mb 0.00 in0.0 mm 0.00 in0.0 mm 0.00 in0.0 mm
05:16 AM 40.1°F4.5°C 32.1°F0.1°C 73% 1.1 mph 1.8 kmh 2.9 mph4.7 kmh 30.38 in1028.8 mb 0.00 in0.0 mm 0.00 in0.0 mm 0.00 in0.0 mm
05:21 AM 40.1°F4.5°C 32.1°F0.1°C 73% 0.2 mph 0.3 kmh 2.9 mph4.7 kmh 30.38 in1028.8 mb 0.00 in0.0 mm 0.00 in0.0 mm 0.00 in0.0 mm
05:26 AM 40.1°F4.5°C 32.5°F0.3°C 74% 2.6 mph NE4.2 kmh NE 2.7 mph4.3 kmh 30.38 in1028.8 mb 0.00 in0.0 mm 0.00 in0.0 mm 0.00 in0.0 mm
05:31 AM 40.1°F4.5°C 32.8°F0.4°C 75% 3.0 mph E4.8 kmh E 4.0 mph6.4 kmh 30.38 in1028.8 mb 0.00 in0.0 mm 0.00 in0.0 mm 0.00 in0.0 mm
05:36 AM 40.1°F4.5°C 32.8°F0.4°C 75% 3.4 mph ENE5.5 kmh ENE 4.0 mph6.4 kmh 30.38 in1028.8 mb 0.00 in0.0 mm 0.00 in0.0 mm 0.00 in0.0 mm
05:41 AM 40.0°F4.4°C 32.3°F0.2°C 74% 1.9 mph NE3.1 kmh NE 3.6 mph5.8 kmh 30.38 in1028.8 mb 0.00 in0.0 mm 0.00 in0.0 mm 0.00 in0.0 mm
05:46 AM 39.4°F4.1°C 31.4°F-0.3°C 73% 4.6 mph 7.4 kmh 4.9 mph7.9 kmh 30.38 in1028.8 mb 0.00 in0.0 mm 0.00 in0.0 mm 0.00 in0.0 mm
05:51 AM 39.2°F4.0°C 31.6°F-0.2°C 74% 3.3 mph 5.3 kmh 4.9 mph7.9 kmh 30.38 in1028.8 mb 0.00 in0.0 mm 0.00 in0.0 mm 0.00 in0.0 mm
05:56 AM 39.2°F4.0°C 32.0°F0.0°C 75% 1.2 mph 1.9 kmh 3.4 mph5.5 kmh 30.38 in1028.8 mb 0.00 in0.0 mm 0.00 in0.0 mm 0.00 in0.0 mm
06:01 AM 39.2°F4.0°C 32.3°F0.2°C 76% 1.9 mph NNW3.1 kmh NNW 3.1 mph5.0 kmh 30.38 in1028.8 mb 0.00 in0.0 mm 0.00 in0.0 mm 0.00 in0.0 mm
06:06 AM 39.1°F3.9°C 32.5°F0.3°C 77% 1.8 mph W2.9 kmh W 3.8 mph6.1 kmh 30.39 in1029.1 mb 0.00 in0.0 mm 0.00 in0.0 mm 0.00 in0.0 mm
06:11 AM 39.1°F3.9°C 32.5°F0.3°C 77% Calm Calm 3.8 mph6.1 kmh 30.39 in1029.1 mb 0.00 in0.0 mm 0.00 in0.0 mm 0.00 in0.0 mm
06:16 AM 39.2°F4.0°C 32.9°F0.5°C 78% 0.4 mph WNW0.6 kmh WNW 1.1 mph1.8 kmh 30.39 in1029.1 mb 0.00 in0.0 mm 0.00 in0.0 mm 0.00 in0.0 mm
06:21 AM 39.4°F4.1°C 33.1°F0.6°C 78% Calm Calm 1.1 mph1.8 kmh 30.39 in1029.1 mb 0.00 in0.0 mm 0.00 in0.0 mm 0.00 in0.0 mm
06:26 AM 39.4°F4.1°C 33.1°F0.6°C 78% 1.1 mph NNW1.8 kmh NNW 1.3 mph2.1 kmh 30.39 in1029.1 mb 0.00 in0.0 mm 0.00 in0.0 mm 0.00 in0.0 mm
06:31 AM 39.2°F4.0°C 32.9°F0.5°C 78% 1.3 mph E2.1 kmh E 1.8 mph2.9 kmh 30.39 in1029.1 mb 0.00 in0.0 mm 0.00 in0.0 mm 0.00 in0.0 mm
06:36 AM 39.1°F3.9°C 32.8°F0.4°C 78% 0.2 mph ESE0.3 kmh ESE 1.8 mph2.9 kmh 30.39 in1029.1 mb 0.00 in0.0 mm 0.00 in0.0 mm 0.00 in0.0 mm
06:41 AM 38.9°F3.8°C 32.6°F0.3°C 78% Calm Calm 1.8 mph2.9 kmh 30.39 in1029.1 mb 0.00 in0.0 mm 0.00 in0.0 mm 0.00 in0.0 mm
06:46 AM 38.5°F3.6°C 32.0°F0.0°C 77% 1.1 mph SSW1.8 kmh SSW 1.8 mph2.9 kmh 30.39 in1029.1 mb 0.00 in0.0 mm 0.00 in0.0 mm 0.00 in0.0 mm
06:51 AM 38.3°F3.5°C 31.4°F-0.3°C 76% Calm Calm 1.8 mph2.9 kmh 30.39 in1029.1 mb 0.00 in0.0 mm 0.00 in0.0 mm 0.00 in0.0 mm
06:56 AM 38.0°F3.3°C 31.1°F-0.5°C 76% Calm Calm 1.3 mph2.1 kmh 30.39 in1029.1 mb 0.00 in0.0 mm 0.00 in0.0 mm 0.00 in0.0 mm
07:02 AM 38.0°F3.3°C 31.4°F-0.3°C 77% Calm Calm 1.1 mph1.8 kmh 30.39 in1029.1 mb 0.00 in0.0 mm 0.00 in0.0 mm 0.00 in0.0 mm
07:06 AM 38.0°F3.3°C 31.4°F-0.3°C 77% 1.9 mph SSW3.1 kmh SSW 2.5 mph4.0 kmh 30.39 in1029.1 mb 0.00 in0.0 mm 0.00 in0.0 mm 0.00 in0.0 mm
07:11 AM 38.3°F3.5°C 31.8°F-0.1°C 77% 1.8 mph 2.9 kmh 2.9 mph4.7 kmh 30.39 in1029.1 mb 0.00 in0.0 mm 0.00 in0.0 mm 0.00 in0.0 mm
07:16 AM 38.3°F3.5°C 32.1°F0.1°C 78% Calm Calm 2.9 mph4.7 kmh 30.39 in1029.1 mb 0.00 in0.0 mm 0.00 in0.0 mm 0.00 in0.0 mm
07:21 AM 38.7°F3.7°C 32.8°F0.4°C 79% Calm Calm 1.1 mph1.8 kmh 30.39 in1029.1 mb 0.00 in0.0 mm 0.00 in0.0 mm 0.00 in0.0 mm
07:26 AM 39.2°F4.0°C 33.3°F0.7°C 79% Calm Calm -- 30.40 in1029.5 mb 0.00 in0.0 mm 0.00 in0.0 mm 0.00 in0.0 mm
07:31 AM 39.8°F4.3°C 33.9°F1.1°C 79% 1.0 mph 1.6 kmh 1.1 mph1.8 kmh 30.40 in1029.5 mb 0.00 in0.0 mm 0.00 in0.0 mm 0.00 in0.0 mm
07:36 AM 40.5°F4.7°C 35.1°F1.7°C 81% 1.5 mph E2.4 kmh E 2.5 mph4.0 kmh 30.39 in1029.1 mb 0.00 in0.0 mm 0.00 in0.0 mm 0.00 in0.0 mm
07:41 AM 41.4°F5.2°C 35.9°F2.2°C 81% 2.3 mph E3.7 kmh E 2.9 mph4.7 kmh 30.39 in1029.1 mb 0.00 in0.0 mm 0.00 in0.0 mm 0.00 in0.0 mm
07:46 AM 42.1°F5.6°C 36.6°F2.6°C 81% 1.7 mph NE2.7 kmh NE 2.9 mph4.7 kmh 30.39 in1029.1 mb 0.00 in0.0 mm 0.00 in0.0 mm 0.00 in0.0 mm
07:51 AM 43.0°F6.1°C 37.5°F3.1°C 81% 2.3 mph ENE3.7 kmh ENE 2.5 mph4.0 kmh 30.39 in1029.1 mb 0.00 in0.0 mm 0.00 in0.0 mm 0.00 in0.0 mm
07:56 AM 43.9°F6.6°C 38.4°F3.6°C 81% 2.7 mph ENE4.3 kmh ENE 3.1 mph5.0 kmh 30.39 in1029.1 mb 0.00 in0.0 mm 0.00 in0.0 mm 0.00 in0.0 mm
08:02 AM 44.8°F7.1°C 39.3°F4.1°C 81% 2.8 mph NE4.5 kmh NE 3.8 mph6.1 kmh 30.39 in1029.1 mb 0.00 in0.0 mm 0.00 in0.0 mm 0.00 in0.0 mm
08:07 AM 45.9°F7.7°C 40.4°F4.7°C 81% 3.7 mph NE6.0 kmh NE 4.3 mph6.9 kmh 30.39 in1029.1 mb 0.00 in0.0 mm 0.00 in0.0 mm 0.00 in0.0 mm
08:12 AM 46.8°F8.2°C 41.1°F5.1°C 80% 5.2 mph ENE8.4 kmh ENE 6.0 mph9.7 kmh 30.39 in1029.1 mb 0.00 in0.0 mm 0.00 in0.0 mm 0.00 in0.0 mm
08:17 AM 47.9°F8.8°C 41.7°F5.4°C 79% 4.9 mph ENE7.9 kmh ENE 6.0 mph9.7 kmh 30.39 in1029.1 mb 0.00 in0.0 mm 0.00 in0.0 mm 0.00 in0.0 mm
08:22 AM 48.6°F9.2°C 41.9°F5.5°C 78% 5.1 mph ENE8.2 kmh ENE 5.4 mph8.7 kmh 30.39 in1029.1 mb 0.00 in0.0 mm 0.00 in0.0 mm 0.00 in0.0 mm
08:27 AM 49.3°F9.6°C 42.0°F5.6°C 76% 4.5 mph E7.2 kmh E 6.3 mph10.1 kmh 30.39 in1029.1 mb 0.00 in0.0 mm 0.00 in0.0 mm 0.00 in0.0 mm
08:31 AM 50.0°F10.0°C 42.4°F5.8°C 75% 4.0 mph E6.4 kmh E 6.3 mph10.1 kmh 30.39 in1029.1 mb 0.00 in0.0 mm 0.00 in0.0 mm 0.00 in0.0 mm
08:36 AM 50.8°F10.4°C 42.8°F6.0°C 74% 2.9 mph E4.7 kmh E 4.9 mph7.9 kmh 30.39 in1029.1 mb 0.00 in0.0 mm 0.00 in0.0 mm 0.00 in0.0 mm
08:41 AM 51.5°F10.8°C 43.1°F6.2°C 73% 2.6 mph E4.2 kmh E 4.7 mph7.6 kmh 30.38 in1028.8 mb 0.00 in0.0 mm 0.00 in0.0 mm 0.00 in0.0 mm
08:46 AM 52.4°F11.3°C 43.7°F6.5°C 72% 3.6 mph SE5.8 kmh SE 3.8 mph6.1 kmh 30.39 in1029.1 mb 0.00 in0.0 mm 0.00 in0.0 mm 0.00 in0.0 mm
08:51 AM 53.1°F11.7°C 44.0°F6.7°C 71% 3.0 mph E4.8 kmh E 4.0 mph6.4 kmh 30.38 in1028.8 mb 0.00 in0.0 mm 0.00 in0.0 mm 0.00 in0.0 mm
08:56 AM 53.6°F12.0°C 44.5°F6.9°C 71% 3.9 mph E6.3 kmh E 4.3 mph6.9 kmh 30.38 in1028.8 mb 0.00 in0.0 mm 0.00 in0.0 mm 0.00 in0.0 mm
09:02 AM 54.5°F12.5°C 44.6°F7.0°C 69% 3.7 mph E6.0 kmh E 4.9 mph7.9 kmh 30.39 in1029.1 mb 0.00 in0.0 mm 0.00 in0.0 mm 0.00 in0.0 mm
09:07 AM 55.3°F12.9°C 45.3°F7.4°C 69% 4.8 mph SE7.7 kmh SE 6.5 mph10.5 kmh 30.39 in1029.1 mb 0.00 in0.0 mm 0.00 in0.0 mm 0.00 in0.0 mm
09:12 AM 56.2°F13.4°C 45.7°F7.6°C 68% 4.2 mph SE6.8 kmh SE 6.5 mph10.5 kmh 30.39 in1029.1 mb 0.00 in0.0 mm 0.00 in0.0 mm 0.00 in0.0 mm
09:17 AM 56.9°F13.8°C 46.0°F7.8°C 67% 4.1 mph E6.6 kmh E 4.9 mph7.9 kmh 30.39 in1029.1 mb 0.00 in0.0 mm 0.00 in0.0 mm 0.00 in0.0 mm
09:22 AM 57.6°F14.2°C 45.9°F7.7°C 65% 4.0 mph E6.4 kmh E 6.5 mph10.5 kmh 30.38 in1028.8 mb 0.00 in0.0 mm 0.00 in0.0 mm 0.00 in0.0 mm
09:27 AM 58.3°F14.6°C 46.2°F7.9°C 64% 4.5 mph ESE7.2 kmh ESE 6.5 mph10.5 kmh 30.39 in1029.1 mb 0.00 in0.0 mm 0.00 in0.0 mm 0.00 in0.0 mm
09:32 AM 59.0°F15.0°C 46.0°F7.8°C 62% 3.8 mph ESE6.1 kmh ESE 5.1 mph8.2 kmh 30.39 in1029.1 mb 0.00 in0.0 mm 0.00 in0.0 mm 0.00 in0.0 mm
09:37 AM 59.8°F15.4°C 46.7°F8.2°C 62% 3.6 mph E5.8 kmh E 4.9 mph7.9 kmh 30.38 in1028.8 mb 0.00 in0.0 mm 0.00 in0.0 mm 0.00 in0.0 mm
09:42 AM 60.7°F15.9°C 46.8°F8.2°C 60% 3.0 mph E4.8 kmh E 4.9 mph7.9 kmh 30.39 in1029.1 mb 0.00 in0.0 mm 0.00 in0.0 mm 0.00 in0.0 mm
09:47 AM 61.4°F16.3°C 47.4°F8.6°C 60% 4.7 mph E7.6 kmh E 5.8 mph9.3 kmh 30.38 in1028.8 mb 0.00 in0.0 mm 0.00 in0.0 mm 0.00 in0.0 mm
09:52 AM 61.7°F16.5°C 46.4°F8.0°C 57% 3.7 mph ENE6.0 kmh ENE 5.8 mph9.3 kmh 30.38 in1028.8 mb 0.00 in0.0 mm 0.00 in0.0 mm 0.00 in0.0 mm
09:57 AM 62.3°F16.8°C 45.8°F7.7°C 55% 4.2 mph E6.8 kmh E 5.4 mph8.7 kmh 30.38 in1028.8 mb 0.00 in0.0 mm 0.00 in0.0 mm 0.00 in0.0 mm
10:02 AM 63.0°F17.2°C 47.4°F8.6°C 57% 3.5 mph SE5.6 kmh SE 5.4 mph8.7 kmh 30.38 in1028.8 mb 0.00 in0.0 mm 0.00 in0.0 mm 0.00 in0.0 mm
10:07 AM 63.7°F17.6°C 47.2°F8.4°C 55% 4.4 mph ESE7.1 kmh ESE 6.3 mph10.1 kmh 30.38 in1028.8 mb 0.00 in0.0 mm 0.00 in0.0 mm 0.00 in0.0 mm
10:12 AM 64.4°F18.0°C 47.8°F8.8°C 55% 4.3 mph SE6.9 kmh SE 6.3 mph10.1 kmh 30.38 in1028.8 mb 0.00 in0.0 mm 0.00 in0.0 mm 0.00 in0.0 mm
10:17 AM 65.3°F18.5°C 48.7°F9.3°C 55% 4.4 mph E7.1 kmh E 5.8 mph9.3 kmh 30.38 in1028.8 mb 0.00 in0.0 mm 0.00 in0.0 mm 0.00 in0.0 mm
10:22 AM 66.1°F18.9°C 48.0°F8.9°C 52% 4.4 mph ENE7.1 kmh ENE 5.6 mph9.0 kmh 30.38 in1028.8 mb 0.00 in0.0 mm 0.00 in0.0 mm 0.00 in0.0 mm
10:27 AM 66.8°F19.3°C 48.2°F9.0°C 51% 2.8 mph ESE4.5 kmh ESE 5.4 mph8.7 kmh 30.37 in1028.4 mb 0.00 in0.0 mm 0.00 in0.0 mm 0.00 in0.0 mm
10:32 AM 67.5°F19.7°C 48.8°F9.3°C 51% 1.7 mph SE2.7 kmh SE 4.7 mph7.6 kmh 30.37 in1028.4 mb 0.00 in0.0 mm 0.00 in0.0 mm 0.00 in0.0 mm
10:37 AM 68.4°F20.2°C 48.5°F9.2°C 49% 2.9 mph ESE4.7 kmh ESE 4.7 mph7.6 kmh 30.37 in1028.4 mb 0.00 in0.0 mm 0.00 in0.0 mm 0.00 in0.0 mm
10:42 AM 69.1°F20.6°C 49.1°F9.5°C 49% 1.1 mph SSE1.8 kmh SSE 3.4 mph5.5 kmh 30.37 in1028.4 mb 0.00 in0.0 mm 0.00 in0.0 mm 0.00 in0.0 mm
10:47 AM 69.8°F21.0°C 49.8°F9.9°C 49% 5.3 mph NE8.5 kmh NE 5.6 mph9.0 kmh 30.37 in1028.4 mb 0.00 in0.0 mm 0.00 in0.0 mm 0.00 in0.0 mm
10:52 AM 69.8°F21.0°C 48.1°F8.9°C 46% 2.9 mph W4.7 kmh W 5.6 mph9.0 kmh 30.36 in1028.1 mb 0.00 in0.0 mm 0.00 in0.0 mm 0.00 in0.0 mm
10:57 AM 69.8°F21.0°C 48.1°F8.9°C 46% 3.6 mph NNE5.8 kmh NNE 5.4 mph8.7 kmh 30.36 in1028.1 mb 0.00 in0.0 mm 0.00 in0.0 mm 0.00 in0.0 mm
11:02 AM 69.8°F21.0°C 45.6°F7.6°C 42% 6.9 mph NE11.1 kmh NE 7.4 mph11.9 kmh 30.36 in1028.1 mb 0.00 in0.0 mm 0.00 in0.0 mm 0.00 in0.0 mm
11:07 AM 69.8°F21.0°C 46.8°F8.2°C 44% 1.8 mph SE2.9 kmh SE 7.4 mph11.9 kmh 30.36 in1028.1 mb 0.00 in0.0 mm 0.00 in0.0 mm 0.00 in0.0 mm
11:12 AM 70.4°F21.3°C 46.7°F8.2°C 43% 4.7 mph NE7.6 kmh NE 6.5 mph10.5 kmh 30.35 in1027.8 mb 0.00 in0.0 mm 0.00 in0.0 mm 0.00 in0.0 mm
11:17 AM 70.9°F21.6°C 47.3°F8.5°C 43% 2.7 mph NW4.3 kmh NW 6.5 mph10.5 kmh 30.35 in1027.8 mb 0.00 in0.0 mm 0.00 in0.0 mm 0.00 in0.0 mm
11:22 AM 71.3°F21.8°C 46.4°F8.0°C 41% 2.4 mph 3.9 kmh 4.9 mph7.9 kmh 30.35 in1027.8 mb 0.00 in0.0 mm 0.00 in0.0 mm 0.00 in0.0 mm
11:27 AM 72.2°F22.3°C 47.8°F8.8°C 42% 1.9 mph NE3.1 kmh NE 4.9 mph7.9 kmh 30.35 in1027.8 mb 0.00 in0.0 mm 0.00 in0.0 mm 0.00 in0.0 mm
11:32 AM 73.1°F22.8°C 47.3°F8.5°C 40% 4.7 mph 7.6 kmh 5.4 mph8.7 kmh 30.35 in1027.8 mb 0.00 in0.0 mm 0.00 in0.0 mm 0.00 in0.0 mm
11:37 AM 73.3°F22.9°C 46.0°F7.8°C 38% 4.5 mph ENE7.2 kmh ENE 9.6 mph15.4 kmh 30.35 in1027.8 mb 0.00 in0.0 mm 0.00 in0.0 mm 0.00 in0.0 mm
11:42 AM 73.6°F23.1°C 47.1°F8.4°C 39% 4.2 mph NE6.8 kmh NE 9.6 mph15.4 kmh 30.34 in1027.4 mb 0.00 in0.0 mm 0.00 in0.0 mm 0.00 in0.0 mm
11:47 AM 74.0°F23.3°C 44.4°F6.9°C 35% 7.5 mph 12.1 kmh 8.1 mph13.0 kmh 30.34 in1027.4 mb 0.00 in0.0 mm 0.00 in0.0 mm 0.00 in0.0 mm
11:52 AM 74.2°F23.4°C 46.8°F8.2°C 38% 4.6 mph ENE7.4 kmh ENE 8.1 mph13.0 kmh 30.34 in1027.4 mb 0.00 in0.0 mm 0.00 in0.0 mm 0.00 in0.0 mm
11:57 AM 74.7°F23.7°C 45.1°F7.3°C 35% 7.4 mph NE11.9 kmh NE 8.5 mph13.7 kmh 30.34 in1027.4 mb 0.00 in0.0 mm 0.00 in0.0 mm 0.00 in0.0 mm
12:03 PM 74.5°F23.6°C 44.9°F7.2°C 35% 5.9 mph N9.5 kmh N 8.5 mph13.7 kmh 30.34 in1027.4 mb 0.00 in0.0 mm 0.00 in0.0 mm 0.00 in0.0 mm
12:07 PM 74.5°F23.6°C 45.6°F7.6°C 36% 4.5 mph N7.2 kmh N 8.5 mph13.7 kmh 30.33 in1027.1 mb 0.00 in0.0 mm 0.00 in0.0 mm 0.00 in0.0 mm
12:12 PM 75.2°F24.0°C 47.1°F8.4°C 37% 2.9 mph WSW4.7 kmh WSW 7.2 mph11.6 kmh 30.33 in1027.1 mb 0.00 in0.0 mm 0.00 in0.0 mm 0.00 in0.0 mm
12:17 PM 76.3°F24.6°C 48.1°F8.9°C 37% 3.1 mph E5.0 kmh E 5.4 mph8.7 kmh 30.33 in1027.1 mb 0.00 in0.0 mm 0.00 in0.0 mm 0.00 in0.0 mm
12:22 PM 77.2°F25.1°C 47.4°F8.6°C 35% 2.6 mph NE4.2 kmh NE 5.4 mph8.7 kmh 30.33 in1027.1 mb 0.00 in0.0 mm 0.00 in0.0 mm 0.00 in0.0 mm
12:27 PM 77.6°F25.3°C 46.9°F8.3°C 34% 2.4 mph NW3.9 kmh NW 6.5 mph10.5 kmh 30.33 in1027.1 mb 0.00 in0.0 mm 0.00 in0.0 mm 0.00 in0.0 mm
12:32 PM 78.3°F25.7°C 48.3°F9.1°C 35% 4.5 mph E7.2 kmh E 6.5 mph10.5 kmh 30.33 in1027.1 mb 0.00 in0.0 mm 0.00 in0.0 mm 0.00 in0.0 mm
12:37 PM 78.5°F25.8°C 46.8°F8.2°C 33% 2.1 mph NW3.4 kmh NW 8.1 mph13.0 kmh 30.32 in1026.8 mb 0.00 in0.0 mm 0.00 in0.0 mm 0.00 in0.0 mm
12:42 PM 78.7°F25.9°C 47.0°F8.3°C 33% 4.0 mph E6.4 kmh E 8.1 mph13.0 kmh 30.32 in1026.8 mb 0.00 in0.0 mm 0.00 in0.0 mm 0.00 in0.0 mm
12:47 PM 79.6°F26.4°C 48.6°F9.2°C 34% 4.2 mph E6.8 kmh E 6.5 mph10.5 kmh 30.32 in1026.8 mb 0.00 in0.0 mm 0.00 in0.0 mm 0.00 in0.0 mm
12:52 PM 79.4°F26.3°C 44.3°F6.8°C 29% 7.9 mph N12.7 kmh N 9.8 mph15.8 kmh 30.31 in1026.4 mb 0.00 in0.0 mm 0.00 in0.0 mm 0.00 in0.0 mm
12:57 PM 78.8°F26.0°C 44.8°F7.1°C 30% 7.4 mph NNE11.9 kmh NNE 9.8 mph15.8 kmh 30.31 in1026.4 mb 0.00 in0.0 mm 0.00 in0.0 mm 0.00 in0.0 mm
01:03 PM 78.8°F26.0°C 45.6°F7.6°C 31% 4.6 mph E7.4 kmh E 8.5 mph13.7 kmh 30.31 in1026.4 mb 0.00 in0.0 mm 0.00 in0.0 mm 0.00 in0.0 mm
01:08 PM 79.0°F26.1°C 43.9°F6.6°C 29% 6.4 mph ENE10.3 kmh ENE 12.1 mph19.5 kmh 30.30 in1026.1 mb 0.00 in0.0 mm 0.00 in0.0 mm 0.00 in0.0 mm
01:13 PM 79.4°F26.3°C 43.2°F6.2°C 28% 11.6 mph NE18.7 kmh NE 14.8 mph23.8 kmh 30.30 in1026.1 mb 0.00 in0.0 mm 0.00 in0.0 mm 0.00 in0.0 mm
01:18 PM 79.4°F26.3°C 43.2°F6.2°C 28% 10.4 mph NE16.7 kmh NE 14.8 mph23.8 kmh 30.30 in1026.1 mb 0.00 in0.0 mm 0.00 in0.0 mm 0.00 in0.0 mm
01:23 PM 79.9°F26.6°C 43.8°F6.6°C 28% 7.9 mph NE12.7 kmh NE 14.5 mph23.3 kmh 30.30 in1026.1 mb 0.00 in0.0 mm 0.00 in0.0 mm 0.00 in0.0 mm
01:28 PM 79.9°F26.6°C 43.8°F6.6°C 28% 7.1 mph NE11.4 kmh NE 10.3 mph16.6 kmh 30.30 in1026.1 mb 0.00 in0.0 mm 0.00 in0.0 mm 0.00 in0.0 mm
01:33 PM 80.1°F26.7°C 44.9°F7.2°C 29% 8.3 mph E13.4 kmh E 9.4 mph15.1 kmh 30.29 in1025.7 mb 0.00 in0.0 mm 0.00 in0.0 mm 0.00 in0.0 mm
01:38 PM 80.1°F26.7°C 42.9°F6.1°C 27% 8.6 mph NNE13.8 kmh NNE 13.9 mph22.4 kmh 30.29 in1025.7 mb 0.00 in0.0 mm 0.00 in0.0 mm 0.00 in0.0 mm
01:43 PM 79.9°F26.6°C 42.7°F5.9°C 27% 5.6 mph NE9.0 kmh NE 13.9 mph22.4 kmh 30.29 in1025.7 mb 0.00 in0.0 mm 0.00 in0.0 mm 0.00 in0.0 mm
01:48 PM 80.6°F27.0°C 45.4°F7.4°C 29% 6.9 mph ENE11.1 kmh ENE 9.8 mph15.8 kmh 30.29 in1025.7 mb 0.00 in0.0 mm 0.00 in0.0 mm 0.00 in0.0 mm
01:52 PM 80.8°F27.1°C 42.4°F5.8°C 26% 4.0 mph N6.4 kmh N 9.2 mph14.8 kmh 30.29 in1025.7 mb 0.00 in0.0 mm 0.00 in0.0 mm 0.00 in0.0 mm
01:57 PM 80.3°F26.8°C 40.9°F4.9°C 25% 11.1 mph NE17.9 kmh NE 15.7 mph25.3 kmh 30.28 in1025.4 mb 0.00 in0.0 mm 0.00 in0.0 mm 0.00 in0.0 mm
02:03 PM 79.9°F26.6°C 40.6°F4.8°C 25% 5.4 mph NE8.7 kmh NE 15.7 mph25.3 kmh 30.28 in1025.4 mb 0.00 in0.0 mm 0.00 in0.0 mm 0.00 in0.0 mm
02:08 PM 80.3°F26.8°C 41.9°F5.5°C 26% 5.5 mph N8.9 kmh N 15.2 mph24.5 kmh 30.28 in1025.4 mb 0.00 in0.0 mm 0.00 in0.0 mm 0.00 in0.0 mm
02:13 PM 80.6°F27.0°C 41.2°F5.1°C 25% 11.1 mph NE17.9 kmh NE 11.4 mph18.3 kmh 30.28 in1025.4 mb 0.00 in0.0 mm 0.00 in0.0 mm 0.00 in0.0 mm
02:18 PM 80.8°F27.1°C 42.4°F5.8°C 26% 8.3 mph ENE13.4 kmh ENE 11.4 mph18.3 kmh 30.28 in1025.4 mb 0.00 in0.0 mm 0.00 in0.0 mm 0.00 in0.0 mm
02:23 PM 81.4°F27.4°C 44.9°F7.2°C 28% 5.7 mph NE9.2 kmh NE 10.7 mph17.2 kmh 30.28 in1025.4 mb 0.00 in0.0 mm 0.00 in0.0 mm 0.00 in0.0 mm
02:28 PM 81.0°F27.2°C 41.5°F5.3°C 25% 7.1 mph NE11.4 kmh NE 10.3 mph16.6 kmh 30.28 in1025.4 mb 0.00 in0.0 mm 0.00 in0.0 mm 0.00 in0.0 mm
02:33 PM 81.2°F27.3°C 41.7°F5.4°C 25% 7.6 mph NE12.2 kmh NE 10.3 mph16.6 kmh 30.27 in1025.1 mb 0.00 in0.0 mm 0.00 in0.0 mm 0.00 in0.0 mm
02:38 PM 81.9°F27.7°C 43.3°F6.3°C 26% 9.1 mph NE14.6 kmh NE 11.4 mph18.3 kmh 30.27 in1025.1 mb 0.00 in0.0 mm 0.00 in0.0 mm 0.00 in0.0 mm
02:43 PM 81.5°F27.5°C 40.9°F4.9°C 24% 6.3 mph NE10.1 kmh NE 11.4 mph18.3 kmh 30.27 in1025.1 mb 0.00 in0.0 mm 0.00 in0.0 mm 0.00 in0.0 mm
02:48 PM 81.5°F27.5°C 41.9°F5.5°C 25% 8.4 mph NE13.5 kmh NE 12.5 mph20.1 kmh 30.27 in1025.1 mb 0.00 in0.0 mm 0.00 in0.0 mm 0.00 in0.0 mm
02:53 PM 81.7°F27.6°C 42.1°F5.6°C 25% 5.3 mph ENE8.5 kmh ENE 12.5 mph20.1 kmh 30.27 in1025.1 mb 0.00 in0.0 mm 0.00 in0.0 mm 0.00 in0.0 mm
02:58 PM 82.3°F27.9°C 43.6°F6.4°C 26% 5.8 mph NE9.3 kmh NE 10.5 mph16.9 kmh 30.27 in1025.1 mb 0.00 in0.0 mm 0.00 in0.0 mm 0.00 in0.0 mm
03:03 PM 81.7°F27.6°C 41.0°F5.0°C 24% 6.3 mph NE10.1 kmh NE 14.1 mph22.7 kmh 30.27 in1025.1 mb 0.00 in0.0 mm 0.00 in0.0 mm 0.00 in0.0 mm
03:08 PM 81.5°F27.5°C 40.9°F4.9°C 24% 1.7 mph E2.7 kmh E 14.1 mph22.7 kmh 30.27 in1025.1 mb 0.00 in0.0 mm 0.00 in0.0 mm 0.00 in0.0 mm
03:13 PM 82.1°F27.8°C 41.3°F5.2°C 24% 2.9 mph ENE4.7 kmh ENE 9.2 mph14.8 kmh 30.26 in1024.7 mb 0.00 in0.0 mm 0.00 in0.0 mm 0.00 in0.0 mm
03:18 PM 82.4°F28.0°C 42.7°F5.9°C 25% 5.4 mph E8.7 kmh E 6.9 mph11.1 kmh 30.26 in1024.7 mb 0.00 in0.0 mm 0.00 in0.0 mm 0.00 in0.0 mm
03:23 PM 82.1°F27.8°C 40.3°F4.6°C 23% 5.7 mph NE9.2 kmh NE 9.2 mph14.8 kmh 30.26 in1024.7 mb 0.00 in0.0 mm 0.00 in0.0 mm 0.00 in0.0 mm
03:28 PM 81.5°F27.5°C 39.9°F4.4°C 23% 5.6 mph NE9.0 kmh NE 9.2 mph14.8 kmh 30.26 in1024.7 mb 0.00 in0.0 mm 0.00 in0.0 mm 0.00 in0.0 mm
03:33 PM 81.4°F27.4°C 39.7°F4.3°C 23% 7.3 mph NE11.7 kmh NE 8.9 mph14.3 kmh 30.26 in1024.7 mb 0.00 in0.0 mm 0.00 in0.0 mm 0.00 in0.0 mm
03:38 PM 81.2°F27.3°C 40.6°F4.8°C 24% 5.8 mph 9.3 kmh 9.4 mph15.1 kmh 30.26 in1024.7 mb 0.00 in0.0 mm 0.00 in0.0 mm 0.00 in0.0 mm
03:43 PM 81.7°F27.6°C 42.1°F5.6°C 25% 5.4 mph ENE8.7 kmh ENE 9.4 mph15.1 kmh 30.25 in1024.4 mb 0.00 in0.0 mm 0.00 in0.0 mm 0.00 in0.0 mm
03:48 PM 82.1°F27.8°C 42.4°F5.8°C 25% 7.4 mph E11.9 kmh E 9.8 mph15.8 kmh 30.25 in1024.4 mb 0.00 in0.0 mm 0.00 in0.0 mm 0.00 in0.0 mm
03:53 PM 82.1°F27.8°C 42.4°F5.8°C 25% 4.9 mph ENE7.9 kmh ENE 10.5 mph16.9 kmh 30.25 in1024.4 mb 0.00 in0.0 mm 0.00 in0.0 mm 0.00 in0.0 mm
03:58 PM 82.1°F27.8°C 43.4°F6.3°C 26% 4.8 mph E7.7 kmh E 10.5 mph16.9 kmh 30.25 in1024.4 mb 0.00 in0.0 mm 0.00 in0.0 mm 0.00 in0.0 mm
04:03 PM 81.7°F27.6°C 40.0°F4.4°C 23% 7.2 mph NE11.6 kmh NE 9.8 mph15.8 kmh 30.25 in1024.4 mb 0.00 in0.0 mm 0.00 in0.0 mm 0.00 in0.0 mm
04:08 PM 81.0°F27.2°C 40.5°F4.7°C 24% 5.3 mph NE8.5 kmh NE 9.8 mph15.8 kmh 30.25 in1024.4 mb 0.00 in0.0 mm 0.00 in0.0 mm 0.00 in0.0 mm
04:13 PM 80.6°F27.0°C 40.1°F4.5°C 24% 9.5 mph E15.3 kmh E 10.5 mph16.9 kmh 30.25 in1024.4 mb 0.00 in0.0 mm 0.00 in0.0 mm 0.00 in0.0 mm
04:18 PM 80.6°F27.0°C 41.2°F5.1°C 25% 4.8 mph NE7.7 kmh NE 10.5 mph16.9 kmh 30.25 in1024.4 mb 0.00 in0.0 mm 0.00 in0.0 mm 0.00 in0.0 mm
04:23 PM 80.6°F27.0°C 40.1°F4.5°C 24% 7.5 mph NE12.1 kmh NE 10.3 mph16.6 kmh 30.25 in1024.4 mb 0.00 in0.0 mm 0.00 in0.0 mm 0.00 in0.0 mm
04:28 PM 80.6°F27.0°C 40.1°F4.5°C 24% 5.2 mph NE8.4 kmh NE 10.3 mph16.6 kmh 30.25 in1024.4 mb 0.00 in0.0 mm 0.00 in0.0 mm 0.00 in0.0 mm
04:33 PM 80.6°F27.0°C 41.2°F5.1°C 25% 7.7 mph E12.4 kmh E 9.8 mph15.8 kmh 30.25 in1024.4 mb 0.00 in0.0 mm 0.00 in0.0 mm 0.00 in0.0 mm
04:38 PM 80.5°F26.9°C 41.0°F5.0°C 25% 7.1 mph ESE11.4 kmh ESE 10.5 mph16.9 kmh 30.24 in1024.0 mb 0.00 in0.0 mm 0.00 in0.0 mm 0.00 in0.0 mm
04:43 PM 80.3°F26.8°C 39.9°F4.4°C 24% 8.4 mph ENE13.5 kmh ENE 10.5 mph16.9 kmh 30.24 in1024.0 mb 0.00 in0.0 mm 0.00 in0.0 mm 0.00 in0.0 mm
04:48 PM 79.9°F26.6°C 39.5°F4.2°C 24% 10.0 mph NE16.1 kmh NE 10.3 mph16.6 kmh 30.24 in1024.0 mb 0.00 in0.0 mm 0.00 in0.0 mm 0.00 in0.0 mm
04:53 PM 79.9°F26.6°C 40.6°F4.8°C 25% 9.9 mph NE15.9 kmh NE 10.3 mph16.6 kmh 30.24 in1024.0 mb 0.00 in0.0 mm 0.00 in0.0 mm 0.00 in0.0 mm
04:58 PM 79.9°F26.6°C 40.6°F4.8°C 25% 8.3 mph E13.4 kmh E 10.1 mph16.3 kmh 30.24 in1024.0 mb 0.00 in0.0 mm 0.00 in0.0 mm 0.00 in0.0 mm
05:04 PM 79.6°F26.4°C 40.2°F4.6°C 25% 9.7 mph NE15.6 kmh NE 9.8 mph15.8 kmh 30.24 in1024.0 mb 0.00 in0.0 mm 0.00 in0.0 mm 0.00 in0.0 mm
05:09 PM 79.4°F26.3°C 40.1°F4.5°C 25% 4.2 mph E6.8 kmh E 9.8 mph15.8 kmh 30.23 in1023.7 mb 0.00 in0.0 mm 0.00 in0.0 mm 0.00 in0.0 mm
05:14 PM 79.2°F26.2°C 40.0°F4.4°C 25% 7.5 mph NE12.1 kmh NE 8.5 mph13.7 kmh 30.23 in1023.7 mb 0.00 in0.0 mm 0.00 in0.0 mm 0.00 in0.0 mm
05:19 PM 78.8°F26.0°C 39.6°F4.2°C 25% 5.7 mph NE9.2 kmh NE 8.5 mph13.7 kmh 30.24 in1024.0 mb 0.00 in0.0 mm 0.00 in0.0 mm 0.00 in0.0 mm
05:23 PM 78.7°F25.9°C 40.5°F4.7°C 26% 5.7 mph E9.2 kmh E 8.1 mph13.0 kmh 30.23 in1023.7 mb 0.00 in0.0 mm 0.00 in0.0 mm 0.00 in0.0 mm
05:28 PM 78.5°F25.8°C 40.3°F4.6°C 26% 4.7 mph ENE7.6 kmh ENE 7.6 mph12.2 kmh 30.23 in1023.7 mb 0.00 in0.0 mm 0.00 in0.0 mm 0.00 in0.0 mm
05:33 PM 78.5°F25.8°C 40.3°F4.6°C 26% 5.3 mph ENE8.5 kmh ENE 7.6 mph12.2 kmh 30.23 in1023.7 mb 0.00 in0.0 mm 0.00 in0.0 mm 0.00 in0.0 mm
05:38 PM 78.1°F25.6°C 40.1°F4.5°C 26% 5.6 mph NE9.0 kmh NE 6.7 mph10.8 kmh 30.23 in1023.7 mb 0.00 in0.0 mm 0.00 in0.0 mm 0.00 in0.0 mm
05:43 PM 77.9°F25.5°C 40.0°F4.4°C 26% 5.3 mph ENE8.5 kmh ENE 7.6 mph12.2 kmh 30.23 in1023.7 mb 0.00 in0.0 mm 0.00 in0.0 mm 0.00 in0.0 mm
05:48 PM 77.4°F25.2°C 41.6°F5.3°C 28% 6.3 mph NE10.1 kmh NE 7.6 mph12.2 kmh 30.23 in1023.7 mb 0.00 in0.0 mm 0.00 in0.0 mm 0.00 in0.0 mm
05:53 PM 77.0°F25.0°C 41.3°F5.2°C 28% 5.4 mph E8.7 kmh E 6.3 mph10.1 kmh 30.23 in1023.7 mb 0.00 in0.0 mm 0.00 in0.0 mm 0.00 in0.0 mm
05:58 PM 76.7°F24.8°C 42.0°F5.6°C 29% 4.0 mph ENE6.4 kmh ENE 6.3 mph10.1 kmh 30.23 in1023.7 mb 0.00 in0.0 mm 0.00 in0.0 mm 0.00 in0.0 mm
06:04 PM 76.3°F24.6°C 41.7°F5.4°C 29% 4.8 mph E7.7 kmh E 5.4 mph8.7 kmh 30.23 in1023.7 mb 0.00 in0.0 mm 0.00 in0.0 mm 0.00 in0.0 mm
06:09 PM 75.8°F24.3°C 42.2°F5.7°C 30% 3.6 mph E5.8 kmh E 5.4 mph8.7 kmh 30.23 in1023.7 mb 0.00 in0.0 mm 0.00 in0.0 mm 0.00 in0.0 mm
06:14 PM 75.2°F24.0°C 41.8°F5.4°C 30% 3.4 mph NE5.5 kmh NE 5.4 mph8.7 kmh 30.23 in1023.7 mb 0.00 in0.0 mm 0.00 in0.0 mm 0.00 in0.0 mm
06:19 PM 74.7°F23.7°C 41.3°F5.2°C 30% 3.0 mph ENE4.8 kmh ENE 4.7 mph7.6 kmh 30.23 in1023.7 mb 0.00 in0.0 mm 0.00 in0.0 mm 0.00 in0.0 mm
06:24 PM 73.8°F23.2°C 41.2°F5.1°C 31% 3.5 mph ENE5.6 kmh ENE 3.6 mph5.8 kmh 30.23 in1023.7 mb 0.00 in0.0 mm 0.00 in0.0 mm 0.00 in0.0 mm
06:29 PM 72.7°F22.6°C 41.0°F5.0°C 32% 4.3 mph NE6.9 kmh NE 4.5 mph7.2 kmh 30.23 in1023.7 mb 0.00 in0.0 mm 0.00 in0.0 mm 0.00 in0.0 mm
06:34 PM 71.3°F21.8°C 40.6°F4.8°C 33% 4.8 mph NE7.7 kmh NE 4.9 mph7.9 kmh 30.23 in1023.7 mb 0.00 in0.0 mm 0.00 in0.0 mm 0.00 in0.0 mm
06:39 PM 70.2°F21.2°C 40.3°F4.6°C 34% 4.0 mph ENE6.4 kmh ENE 4.9 mph7.9 kmh 30.23 in1023.7 mb 0.00 in0.0 mm 0.00 in0.0 mm 0.00 in0.0 mm
06:44 PM 69.7°F20.9°C 40.6°F4.8°C 35% 3.0 mph ENE4.8 kmh ENE 4.7 mph7.6 kmh 30.23 in1023.7 mb 0.00 in0.0 mm 0.00 in0.0 mm 0.00 in0.0 mm
06:49 PM 68.8°F20.4°C 41.3°F5.2°C 37% 3.9 mph NE6.3 kmh NE 4.0 mph6.4 kmh 30.23 in1023.7 mb 0.00 in0.0 mm 0.00 in0.0 mm 0.00 in0.0 mm
06:53 PM 68.0°F20.0°C 40.6°F4.8°C 37% 2.8 mph ENE4.5 kmh ENE 4.0 mph6.4 kmh 30.23 in1023.7 mb 0.00 in0.0 mm 0.00 in0.0 mm 0.00 in0.0 mm
06:58 PM 67.3°F19.6°C 40.8°F4.9°C 38% 3.3 mph NE5.3 kmh NE 3.8 mph6.1 kmh 30.23 in1023.7 mb 0.00 in0.0 mm 0.00 in0.0 mm 0.00 in0.0 mm
07:04 PM 66.6°F19.2°C 39.3°F4.1°C 37% 2.5 mph ENE4.0 kmh ENE 3.6 mph5.8 kmh 30.23 in1023.7 mb 0.00 in0.0 mm 0.00 in0.0 mm 0.00 in0.0 mm
07:09 PM 66.1°F18.9°C 39.6°F4.2°C 38% 1.9 mph ENE3.1 kmh ENE 3.1 mph5.0 kmh 30.23 in1023.7 mb 0.00 in0.0 mm 0.00 in0.0 mm 0.00 in0.0 mm
07:14 PM 65.7°F18.7°C 39.3°F4.1°C 38% 3.9 mph 6.3 kmh 4.3 mph6.9 kmh 30.23 in1023.7 mb 0.00 in0.0 mm 0.00 in0.0 mm 0.00 in0.0 mm
07:19 PM 64.4°F18.0°C 38.9°F3.8°C 39% 3.7 mph N6.0 kmh N 4.3 mph6.9 kmh 30.24 in1024.0 mb 0.00 in0.0 mm 0.00 in0.0 mm 0.00 in0.0 mm
07:24 PM 63.4°F17.4°C 38.6°F3.7°C 40% 3.3 mph 5.3 kmh 4.3 mph6.9 kmh 30.24 in1024.0 mb 0.00 in0.0 mm 0.00 in0.0 mm 0.00 in0.0 mm
07:29 PM 62.6°F17.0°C 38.5°F3.6°C 41% 3.5 mph 5.6 kmh 4.5 mph7.2 kmh 30.24 in1024.0 mb 0.00 in0.0 mm 0.00 in0.0 mm 0.00 in0.0 mm
07:34 PM 62.6°F17.0°C 39.2°F4.0°C 42% 4.1 mph NNE6.6 kmh NNE 4.7 mph7.6 kmh 30.24 in1024.0 mb 0.00 in0.0 mm 0.00 in0.0 mm 0.00 in0.0 mm
07:39 PM 62.5°F16.9°C 39.5°F4.2°C 43% 4.8 mph NE7.7 kmh NE 4.9 mph7.9 kmh 30.24 in1024.0 mb 0.00 in0.0 mm 0.00 in0.0 mm 0.00 in0.0 mm
07:44 PM 62.3°F16.8°C 39.4°F4.1°C 43% 4.3 mph NNE6.9 kmh NNE 5.4 mph8.7 kmh 30.24 in1024.0 mb 0.00 in0.0 mm 0.00 in0.0 mm 0.00 in0.0 mm
07:49 PM 62.3°F16.8°C 40.0°F4.4°C 44% 6.7 mph N10.8 kmh N 6.9 mph11.1 kmh 30.25 in1024.4 mb 0.00 in0.0 mm 0.00 in0.0 mm 0.00 in0.0 mm
07:54 PM 61.6°F16.4°C 39.9°F4.4°C 45% 5.8 mph NNE9.3 kmh NNE 6.9 mph11.1 kmh 30.24 in1024.0 mb 0.00 in0.0 mm 0.00 in0.0 mm 0.00 in0.0 mm
07:59 PM 60.7°F15.9°C 39.7°F4.3°C 46% 5.0 mph NE8.0 kmh NE 6.7 mph10.8 kmh 30.25 in1024.4 mb 0.00 in0.0 mm 0.00 in0.0 mm 0.00 in0.0 mm
08:04 PM 60.7°F15.9°C 40.2°F4.6°C 47% 4.3 mph NE6.9 kmh NE 6.7 mph10.8 kmh 30.25 in1024.4 mb 0.00 in0.0 mm 0.00 in0.0 mm 0.00 in0.0 mm
08:09 PM 60.7°F15.9°C 40.2°F4.6°C 47% 5.1 mph NE8.2 kmh NE 6.0 mph9.7 kmh 30.25 in1024.4 mb 0.00 in0.0 mm 0.00 in0.0 mm 0.00 in0.0 mm
08:14 PM 60.3°F15.7°C 39.9°F4.4°C 47% 3.7 mph N6.0 kmh N 6.0 mph9.7 kmh 30.24 in1024.0 mb 0.00 in0.0 mm 0.00 in0.0 mm 0.00 in0.0 mm
08:19 PM 59.9°F15.5°C 39.6°F4.2°C 47% 5.8 mph NNE9.3 kmh NNE 6.0 mph9.7 kmh 30.25 in1024.4 mb 0.00 in0.0 mm 0.00 in0.0 mm 0.00 in0.0 mm
08:24 PM 59.6°F15.3°C 40.4°F4.7°C 49% 8.9 mph N14.3 kmh N 9.2 mph14.8 kmh 30.25 in1024.4 mb 0.00 in0.0 mm 0.00 in0.0 mm 0.00 in0.0 mm
08:29 PM 59.9°F15.5°C 40.8°F4.9°C 49% 6.5 mph N10.5 kmh N 9.2 mph14.8 kmh 30.25 in1024.4 mb 0.00 in0.0 mm 0.00 in0.0 mm 0.00 in0.0 mm
08:34 PM 59.8°F15.4°C 40.0°F4.4°C 48% 5.1 mph 8.2 kmh 9.2 mph14.8 kmh 30.25 in1024.4 mb 0.00 in0.0 mm 0.00 in0.0 mm 0.00 in0.0 mm
08:39 PM 59.4°F15.2°C 39.7°F4.3°C 48% 3.7 mph 6.0 kmh 5.4 mph8.7 kmh 30.25 in1024.4 mb 0.00 in0.0 mm 0.00 in0.0 mm 0.00 in0.0 mm
08:44 PM 59.0°F15.0°C 39.3°F4.1°C 48% 4.5 mph 7.2 kmh 4.7 mph7.6 kmh 30.25 in1024.4 mb 0.00 in0.0 mm 0.00 in0.0 mm 0.00 in0.0 mm
08:49 PM 58.7°F14.8°C 39.6°F4.2°C 49% 4.9 mph NE7.9 kmh NE 5.8 mph9.3 kmh 30.25 in1024.4 mb 0.00 in0.0 mm 0.00 in0.0 mm 0.00 in0.0 mm
08:54 PM 58.7°F14.8°C 40.1°F4.5°C 50% 4.9 mph 7.9 kmh 6.3 mph10.1 kmh 30.25 in1024.4 mb 0.00 in0.0 mm 0.00 in0.0 mm 0.00 in0.0 mm
09:00 PM 58.5°F14.7°C 40.1°F4.5°C 50% 5.1 mph 8.2 kmh 6.3 mph10.1 kmh 30.25 in1024.4 mb 0.00 in0.0 mm 0.00 in0.0 mm 0.00 in0.0 mm
09:05 PM 58.0°F14.4°C 39.5°F4.2°C 50% 4.8 mph 7.7 kmh 5.6 mph9.0 kmh 30.25 in1024.4 mb 0.00 in0.0 mm 0.00 in0.0 mm 0.00 in0.0 mm
09:10 PM 57.6°F14.2°C 39.7°F4.3°C 51% 1.7 mph N2.7 kmh N 5.1 mph8.2 kmh 30.25 in1024.4 mb 0.00 in0.0 mm 0.00 in0.0 mm 0.00 in0.0 mm
09:14 PM 57.2°F14.0°C 39.3°F4.1°C 51% 1.1 mph ENE1.8 kmh ENE 4.7 mph7.6 kmh 30.25 in1024.4 mb 0.00 in0.0 mm 0.00 in0.0 mm 0.00 in0.0 mm
09:19 PM 56.9°F13.8°C 39.0°F3.9°C 51% 1.5 mph ENE2.4 kmh ENE 1.8 mph2.9 kmh 30.25 in1024.4 mb 0.00 in0.0 mm 0.00 in0.0 mm 0.00 in0.0 mm
09:24 PM 56.5°F13.6°C 39.1°F3.9°C 52% 2.5 mph NE4.0 kmh NE 3.6 mph5.8 kmh 30.25 in1024.4 mb 0.00 in0.0 mm 0.00 in0.0 mm 0.00 in0.0 mm
09:29 PM 56.2°F13.4°C 38.7°F3.7°C 52% 1.8 mph W2.9 kmh W 3.6 mph5.8 kmh 30.25 in1024.4 mb 0.00 in0.0 mm 0.00 in0.0 mm 0.00 in0.0 mm
09:34 PM 56.0°F13.3°C 38.5°F3.6°C 52% 1.9 mph NNW3.1 kmh NNW 4.3 mph6.9 kmh 30.25 in1024.4 mb 0.00 in0.0 mm 0.00 in0.0 mm 0.00 in0.0 mm
09:39 PM 55.8°F13.2°C 37.9°F3.3°C 51% 3.4 mph N5.5 kmh N 5.4 mph8.7 kmh 30.25 in1024.4 mb 0.00 in0.0 mm 0.00 in0.0 mm 0.00 in0.0 mm
09:44 PM 55.6°F13.1°C 38.2°F3.4°C 52% 1.8 mph NE2.9 kmh NE 5.4 mph8.7 kmh 30.25 in1024.4 mb 0.00 in0.0 mm 0.00 in0.0 mm 0.00 in0.0 mm
09:49 PM 55.4°F13.0°C 38.5°F3.6°C 53% 1.5 mph NE2.4 kmh NE 3.8 mph6.1 kmh 30.25 in1024.4 mb 0.00 in0.0 mm 0.00 in0.0 mm 0.00 in0.0 mm
09:54 PM 55.1°F12.8°C 38.2°F3.4°C 53% 1.1 mph ENE1.8 kmh ENE 1.8 mph2.9 kmh 30.25 in1024.4 mb 0.00 in0.0 mm 0.00 in0.0 mm 0.00 in0.0 mm
10:00 PM 54.7°F12.6°C 38.4°F3.6°C 54% 1.2 mph NNE1.9 kmh NNE 1.3 mph2.1 kmh 30.25 in1024.4 mb 0.00 in0.0 mm 0.00 in0.0 mm 0.00 in0.0 mm
10:05 PM 54.7°F12.6°C 38.4°F3.6°C 54% 1.5 mph E2.4 kmh E 1.6 mph2.6 kmh 30.25 in1024.4 mb 0.00 in0.0 mm 0.00 in0.0 mm 0.00 in0.0 mm
10:10 PM 54.4°F12.4°C 38.0°F3.3°C 54% 1.6 mph SE2.6 kmh SE 2.5 mph4.0 kmh 30.25 in1024.4 mb 0.00 in0.0 mm 0.00 in0.0 mm 0.00 in0.0 mm
10:15 PM 54.0°F12.2°C 38.2°F3.4°C 55% 1.5 mph NE2.4 kmh NE 2.5 mph4.0 kmh 30.25 in1024.4 mb 0.00 in0.0 mm 0.00 in0.0 mm 0.00 in0.0 mm
10:20 PM 54.0°F12.2°C 38.2°F3.4°C 55% 1.5 mph 2.4 kmh 2.5 mph4.0 kmh 30.25 in1024.4 mb 0.00 in0.0 mm 0.00 in0.0 mm 0.00 in0.0 mm
10:25 PM 54.0°F12.2°C 38.2°F3.4°C 55% 1.7 mph N2.7 kmh N 2.5 mph4.0 kmh 30.26 in1024.7 mb 0.00 in0.0 mm 0.00 in0.0 mm 0.00 in0.0 mm
10:30 PM 54.0°F12.2°C 38.6°F3.7°C 56% 1.3 mph NNE2.1 kmh NNE 2.2 mph3.5 kmh 30.26 in1024.7 mb 0.00 in0.0 mm 0.00 in0.0 mm 0.00 in0.0 mm
10:35 PM 54.0°F12.2°C 38.6°F3.7°C 56% 1.9 mph NNE3.1 kmh NNE 2.5 mph4.0 kmh 30.25 in1024.4 mb 0.00 in0.0 mm 0.00 in0.0 mm 0.00 in0.0 mm
10:40 PM 53.8°F12.1°C 38.4°F3.6°C 56% 1.1 mph NNE1.8 kmh NNE 2.5 mph4.0 kmh 30.25 in1024.4 mb 0.00 in0.0 mm 0.00 in0.0 mm 0.00 in0.0 mm
10:44 PM 53.6°F12.0°C 38.7°F3.7°C 57% 0.2 mph NNE0.3 kmh NNE 2.0 mph3.2 kmh 30.25 in1024.4 mb 0.00 in0.0 mm 0.00 in0.0 mm 0.00 in0.0 mm
10:49 PM 53.5°F11.9°C 38.5°F3.6°C 57% 0.2 mph NNE0.3 kmh NNE 2.0 mph3.2 kmh 30.25 in1024.4 mb 0.00 in0.0 mm 0.00 in0.0 mm 0.00 in0.0 mm
10:54 PM 53.1°F11.7°C 38.3°F3.5°C 57% 1.1 mph NNE1.8 kmh NNE 1.1 mph1.8 kmh 30.26 in1024.7 mb 0.00 in0.0 mm 0.00 in0.0 mm 0.00 in0.0 mm
11:00 PM 52.7°F11.5°C 38.4°F3.6°C 58% 1.6 mph E2.6 kmh E 1.8 mph2.9 kmh 30.25 in1024.4 mb 0.00 in0.0 mm 0.00 in0.0 mm 0.00 in0.0 mm
11:05 PM 52.4°F11.3°C 38.0°F3.3°C 58% 1.1 mph E1.8 kmh E 1.8 mph2.9 kmh 30.25 in1024.4 mb 0.00 in0.0 mm 0.00 in0.0 mm 0.00 in0.0 mm
11:10 PM 52.0°F11.1°C 37.6°F3.1°C 58% 1.5 mph E2.4 kmh E 2.7 mph4.3 kmh 30.25 in1024.4 mb 0.00 in0.0 mm 0.00 in0.0 mm 0.00 in0.0 mm
11:15 PM 51.8°F11.0°C 37.0°F2.8°C 57% 2.6 mph NE4.2 kmh NE 2.7 mph4.3 kmh 30.25 in1024.4 mb 0.00 in0.0 mm 0.00 in0.0 mm 0.00 in0.0 mm
11:20 PM 52.0°F11.1°C 37.6°F3.1°C 58% 2.9 mph 4.7 kmh 3.6 mph5.8 kmh 30.25 in1024.4 mb 0.00 in0.0 mm 0.00 in0.0 mm 0.00 in0.0 mm
11:25 PM 52.2°F11.2°C 38.3°F3.5°C 59% 1.1 mph NNE1.8 kmh NNE 3.6 mph5.8 kmh 30.25 in1024.4 mb 0.00 in0.0 mm 0.00 in0.0 mm 0.00 in0.0 mm
11:30 PM 52.0°F11.1°C 38.1°F3.4°C 59% 3.0 mph 4.8 kmh 3.8 mph6.1 kmh 30.25 in1024.4 mb 0.00 in0.0 mm 0.00 in0.0 mm 0.00 in0.0 mm
11:35 PM 51.8°F11.0°C 37.9°F3.3°C 59% 3.5 mph NE5.6 kmh NE 4.9 mph7.9 kmh 30.25 in1024.4 mb 0.00 in0.0 mm 0.00 in0.0 mm 0.00 in0.0 mm
11:40 PM 51.8°F11.0°C 38.3°F3.5°C 60% 3.9 mph NNE6.3 kmh NNE 4.9 mph7.9 kmh 30.25 in1024.4 mb 0.00 in0.0 mm 0.00 in0.0 mm 0.00 in0.0 mm
11:45 PM 51.7°F10.9°C 38.6°F3.7°C 61% 3.3 mph ENE5.3 kmh ENE 4.7 mph7.6 kmh 30.25 in1024.4 mb 0.00 in0.0 mm 0.00 in0.0 mm 0.00 in0.0 mm
11:50 PM 51.5°F10.8°C 38.4°F3.6°C 61% 1.1 mph ENE1.8 kmh ENE 4.7 mph7.6 kmh 30.25 in1024.4 mb 0.00 in0.0 mm 0.00 in0.0 mm 0.00 in0.0 mm
11:55 PM 50.9°F10.5°C 37.5°F3.1°C 60% 2.8 mph ESE4.5 kmh ESE 2.9 mph4.7 kmh 30.25 in1024.4 mb 0.00 in0.0 mm 0.00 in0.0 mm 0.00 in0.0 mm